sensor_id;sensor_type;location;lat;lon;timestamp;P1;durP1;ratioP1;P2;durP2;ratioP2
44026;SDS011;29696;55.698;37.460;2023-04-28T00:00:57;13.07;;;8.00;;
44026;SDS011;29696;55.698;37.460;2023-04-28T00:03:23;11.40;;;8.33;;
44026;SDS011;29696;55.698;37.460;2023-04-28T00:05:51;11.50;;;7.90;;
44026;SDS011;29696;55.698;37.460;2023-04-28T00:08:18;11.83;;;7.13;;
44026;SDS011;29696;55.698;37.460;2023-04-28T00:10:46;9.90;;;8.17;;
44026;SDS011;29696;55.698;37.460;2023-04-28T00:13:12;9.63;;;7.40;;
44026;SDS011;29696;55.698;37.460;2023-04-28T00:15:39;7.77;;;7.03;;
44026;SDS011;29696;55.698;37.460;2023-04-28T00:18:05;11.93;;;6.83;;
44026;SDS011;29696;55.698;37.460;2023-04-28T00:20:32;8.97;;;7.53;;
44026;SDS011;29696;55.698;37.460;2023-04-28T00:22:58;7.93;;;7.00;;
44026;SDS011;29696;55.698;37.460;2023-04-28T00:25:24;11.33;;;7.70;;
44026;SDS011;29696;55.698;37.460;2023-04-28T00:27:51;10.57;;;7.40;;
44026;SDS011;29696;55.698;37.460;2023-04-28T00:30:17;11.30;;;7.73;;
44026;SDS011;29696;55.698;37.460;2023-04-28T00:32:44;10.07;;;8.43;;
44026;SDS011;29696;55.698;37.460;2023-04-28T00:35:10;12.67;;;7.77;;
44026;SDS011;29696;55.698;37.460;2023-04-28T00:37:37;9.93;;;7.37;;
44026;SDS011;29696;55.698;37.460;2023-04-28T00:40:04;9.20;;;7.03;;
44026;SDS011;29696;55.698;37.460;2023-04-28T00:42:32;12.30;;;8.07;;
44026;SDS011;29696;55.698;37.460;2023-04-28T00:44:58;9.87;;;8.27;;
44026;SDS011;29696;55.698;37.460;2023-04-28T00:47:34;10.93;;;7.37;;
44026;SDS011;29696;55.698;37.460;2023-04-28T00:50:03;10.33;;;6.87;;
44026;SDS011;29696;55.698;37.460;2023-04-28T00:52:35;8.07;;;7.17;;
44026;SDS011;29696;55.698;37.460;2023-04-28T00:55:03;11.60;;;6.97;;
44026;SDS011;29696;55.698;37.460;2023-04-28T00:57:31;11.00;;;7.60;;
44026;SDS011;29696;55.698;37.460;2023-04-28T00:59:59;8.17;;;7.10;;
44026;SDS011;29696;55.698;37.460;2023-04-28T01:02:26;19.33;;;8.33;;
44026;SDS011;29696;55.698;37.460;2023-04-28T01:04:55;9.53;;;6.80;;
44026;SDS011;29696;55.698;37.460;2023-04-28T01:07:23;11.67;;;7.20;;
44026;SDS011;29696;55.698;37.460;2023-04-28T01:09:49;10.10;;;7.40;;
44026;SDS011;29696;55.698;37.460;2023-04-28T01:12:21;10.00;;;7.37;;
44026;SDS011;29696;55.698;37.460;2023-04-28T01:14:49;10.67;;;8.20;;
44026;SDS011;29696;55.698;37.460;2023-04-28T01:17:16;11.73;;;7.50;;
44026;SDS011;29696;55.698;37.460;2023-04-28T01:19:43;19.33;;;8.33;;
44026;SDS011;29696;55.698;37.460;2023-04-28T01:22:10;10.47;;;7.20;;
44026;SDS011;29696;55.698;37.460;2023-04-28T01:24:39;10.10;;;8.10;;
44026;SDS011;29696;55.698;37.460;2023-04-28T01:27:07;9.30;;;7.80;;
44026;SDS011;29696;55.698;37.460;2023-04-28T01:29:33;11.70;;;7.60;;
44026;SDS011;29696;55.698;37.460;2023-04-28T01:32:00;8.73;;;7.10;;
44026;SDS011;29696;55.698;37.460;2023-04-28T01:34:26;9.93;;;7.13;;
44026;SDS011;29696;55.698;37.460;2023-04-28T01:36:52;11.07;;;7.00;;
44026;SDS011;29696;55.698;37.460;2023-04-28T01:39:19;10.17;;;7.00;;
44026;SDS011;29696;55.698;37.460;2023-04-28T01:41:45;9.93;;;7.00;;
44026;SDS011;29696;55.698;37.460;2023-04-28T01:44:12;13.27;;;7.30;;
44026;SDS011;29696;55.698;37.460;2023-04-28T01:46:38;11.37;;;7.17;;
44026;SDS011;29696;55.698;37.460;2023-04-28T01:49:05;13.37;;;8.53;;
44026;SDS011;29696;55.698;37.460;2023-04-28T01:51:33;7.97;;;6.50;;
44026;SDS011;29696;55.698;37.460;2023-04-28T01:54:01;14.07;;;8.57;;
44026;SDS011;29696;55.698;37.460;2023-04-28T01:56:28;18.93;;;7.70;;
44026;SDS011;29696;55.698;37.460;2023-04-28T01:58:56;8.93;;;6.27;;
44026;SDS011;29696;55.698;37.460;2023-04-28T02:01:23;10.10;;;6.53;;
44026;SDS011;29696;55.698;37.460;2023-04-28T02:03:50;10.30;;;6.70;;
44026;SDS011;29696;55.698;37.460;2023-04-28T02:06:16;9.27;;;6.43;;
44026;SDS011;29696;55.698;37.460;2023-04-28T02:08:43;7.83;;;7.03;;
44026;SDS011;29696;55.698;37.460;2023-04-28T02:11:11;12.10;;;6.63;;
44026;SDS011;29696;55.698;37.460;2023-04-28T02:13:38;11.33;;;7.90;;
44026;SDS011;29696;55.698;37.460;2023-04-28T02:16:05;11.30;;;6.90;;
44026;SDS011;29696;55.698;37.460;2023-04-28T02:18:31;8.57;;;7.77;;
44026;SDS011;29696;55.698;37.460;2023-04-28T02:21:07;12.03;;;7.67;;
44026;SDS011;29696;55.698;37.460;2023-04-28T02:26:01;8.73;;;7.13;;
44026;SDS011;29696;55.698;37.460;2023-04-28T02:28:28;10.27;;;7.20;;
44026;SDS011;29696;55.698;37.460;2023-04-28T02:31:06;28.43;;;7.23;;
44026;SDS011;29696;55.698;37.460;2023-04-28T02:33:33;9.30;;;6.80;;
44026;SDS011;29696;55.698;37.460;2023-04-28T02:36:01;8.80;;;6.23;;
44026;SDS011;29696;55.698;37.460;2023-04-28T02:38:29;14.57;;;8.60;;
44026;SDS011;29696;55.698;37.460;2023-04-28T02:41:02;14.93;;;8.90;;
44026;SDS011;29696;55.698;37.460;2023-04-28T02:43:30;7.53;;;6.50;;
44026;SDS011;29696;55.698;37.460;2023-04-28T02:45:57;11.13;;;7.60;;
44026;SDS011;29696;55.698;37.460;2023-04-28T02:48:24;9.17;;;7.07;;
44026;SDS011;29696;55.698;37.460;2023-04-28T02:50:52;9.13;;;7.27;;
44026;SDS011;29696;55.698;37.460;2023-04-28T02:53:19;9.73;;;7.20;;
44026;SDS011;29696;55.698;37.460;2023-04-28T02:55:47;7.83;;;6.37;;
44026;SDS011;29696;55.698;37.460;2023-04-28T02:58:13;10.60;;;6.60;;
44026;SDS011;29696;55.698;37.460;2023-04-28T03:00:40;6.73;;;6.03;;
44026;SDS011;29696;55.698;37.460;2023-04-28T03:03:06;8.90;;;7.10;;
44026;SDS011;29696;55.698;37.460;2023-04-28T03:05:33;9.83;;;6.40;;
44026;SDS011;29696;55.698;37.460;2023-04-28T03:08:00;8.20;;;7.30;;
44026;SDS011;29696;55.698;37.460;2023-04-28T03:10:27;9.27;;;7.63;;
44026;SDS011;29696;55.698;37.460;2023-04-28T03:12:54;13.00;;;7.27;;
44026;SDS011;29696;55.698;37.460;2023-04-28T03:15:20;11.10;;;8.30;;
44026;SDS011;29696;55.698;37.460;2023-04-28T03:17:47;7.43;;;6.73;;
44026;SDS011;29696;55.698;37.460;2023-04-28T03:20:13;10.83;;;7.37;;
44026;SDS011;29696;55.698;37.460;2023-04-28T03:22:40;10.00;;;6.60;;
44026;SDS011;29696;55.698;37.460;2023-04-28T03:25:07;11.97;;;6.57;;
44026;SDS011;29696;55.698;37.460;2023-04-28T03:27:40;11.17;;;7.30;;
44026;SDS011;29696;55.698;37.460;2023-04-28T03:30:07;9.30;;;7.70;;
44026;SDS011;29696;55.698;37.460;2023-04-28T03:32:35;10.50;;;7.70;;
44026;SDS011;29696;55.698;37.460;2023-04-28T03:35:01;9.57;;;7.10;;
44026;SDS011;29696;55.698;37.460;2023-04-28T03:37:29;16.67;;;7.10;;
44026;SDS011;29696;55.698;37.460;2023-04-28T03:39:56;8.47;;;7.57;;
44026;SDS011;29696;55.698;37.460;2023-04-28T03:42:22;14.63;;;7.90;;
44026;SDS011;29696;55.698;37.460;2023-04-28T03:45:07;9.32;;;6.78;;
44026;SDS011;29696;55.698;37.460;2023-04-28T03:47:34;11.13;;;7.93;;
44026;SDS011;29696;55.698;37.460;2023-04-28T03:50:01;10.03;;;7.40;;
44026;SDS011;29696;55.698;37.460;2023-04-28T03:52:30;9.57;;;6.57;;
44026;SDS011;29696;55.698;37.460;2023-04-28T03:54:57;10.20;;;7.17;;
44026;SDS011;29696;55.698;37.460;2023-04-28T03:57:24;11.70;;;7.33;;
44026;SDS011;29696;55.698;37.460;2023-04-28T03:59:50;10.50;;;6.90;;
44026;SDS011;29696;55.698;37.460;2023-04-28T04:02:17;13.83;;;8.70;;
44026;SDS011;29696;55.698;37.460;2023-04-28T04:04:43;9.83;;;8.43;;
44026;SDS011;29696;55.698;37.460;2023-04-28T04:07:10;9.63;;;7.83;;
44026;SDS011;29696;55.698;37.460;2023-04-28T04:09:36;9.83;;;6.90;;
44026;SDS011;29696;55.698;37.460;2023-04-28T04:12:03;10.60;;;6.27;;
44026;SDS011;29696;55.698;37.460;2023-04-28T04:14:30;12.00;;;7.33;;
44026;SDS011;29696;55.698;37.460;2023-04-28T04:16:57;13.00;;;7.70;;
44026;SDS011;29696;55.698;37.460;2023-04-28T04:19:23;9.97;;;7.63;;
44026;SDS011;29696;55.698;37.460;2023-04-28T04:21:53;10.47;;;7.47;;
44026;SDS011;29696;55.698;37.460;2023-04-28T04:24:19;13.03;;;8.03;;
44026;SDS011;29696;55.698;37.460;2023-04-28T04:26:46;8.93;;;7.95;;
44026;SDS011;29696;55.698;37.460;2023-04-28T04:29:25;12.80;;;7.87;;
44026;SDS011;29696;55.698;37.460;2023-04-28T04:31:51;8.93;;;7.90;;
44026;SDS011;29696;55.698;37.460;2023-04-28T04:34:18;12.10;;;7.37;;
44026;SDS011;29696;55.698;37.460;2023-04-28T04:36:45;17.95;;;9.65;;
44026;SDS011;29696;55.698;37.460;2023-04-28T04:39:11;10.10;;;8.37;;
44026;SDS011;29696;55.698;37.460;2023-04-28T04:41:38;22.50;;;8.70;;
44026;SDS011;29696;55.698;37.460;2023-04-28T04:44:24;10.47;;;7.07;;
44026;SDS011;29696;55.698;37.460;2023-04-28T04:46:52;10.07;;;7.37;;
44026;SDS011;29696;55.698;37.460;2023-04-28T04:49:20;7.73;;;6.93;;
44026;SDS011;29696;55.698;37.460;2023-04-28T04:51:46;11.77;;;7.00;;
44026;SDS011;29696;55.698;37.460;2023-04-28T04:54:13;10.37;;;7.33;;
44026;SDS011;29696;55.698;37.460;2023-04-28T04:56:41;11.60;;;7.82;;
44026;SDS011;29696;55.698;37.460;2023-04-28T04:59:09;7.88;;;7.13;;
44026;SDS011;29696;55.698;37.460;2023-04-28T05:01:54;11.43;;;7.45;;
44026;SDS011;29696;55.698;37.460;2023-04-28T05:04:20;10.70;;;9.60;;
44026;SDS011;29696;55.698;37.460;2023-04-28T05:06:47;12.77;;;7.07;;
44026;SDS011;29696;55.698;37.460;2023-04-28T05:09:13;11.80;;;9.67;;
44026;SDS011;29696;55.698;37.460;2023-04-28T05:11:40;11.40;;;7.97;;
44026;SDS011;29696;55.698;37.460;2023-04-28T05:14:06;10.68;;;8.02;;
44026;SDS011;29696;55.698;37.460;2023-04-28T05:16:33;9.50;;;7.90;;
44026;SDS011;29696;55.698;37.460;2023-04-28T05:19:08;11.80;;;8.23;;
44026;SDS011;29696;55.698;37.460;2023-04-28T05:21:35;11.10;;;8.47;;
44026;SDS011;29696;55.698;37.460;2023-04-28T05:24:02;11.55;;;7.30;;
44026;SDS011;29696;55.698;37.460;2023-04-28T05:26:29;10.10;;;8.03;;
44026;SDS011;29696;55.698;37.460;2023-04-28T05:28:59;15.32;;;9.32;;
44026;SDS011;29696;55.698;37.460;2023-04-28T05:31:26;11.13;;;8.73;;
44026;SDS011;29696;55.698;37.460;2023-04-28T05:33:53;19.17;;;9.47;;
44026;SDS011;29696;55.698;37.460;2023-04-28T05:36:20;10.80;;;8.80;;
44026;SDS011;29696;55.698;37.460;2023-04-28T05:38:47;13.57;;;8.90;;
44026;SDS011;29696;55.698;37.460;2023-04-28T05:41:14;11.87;;;9.00;;
44026;SDS011;29696;55.698;37.460;2023-04-28T05:43:40;14.98;;;7.95;;
44026;SDS011;29696;55.698;37.460;2023-04-28T05:46:07;11.45;;;8.38;;
44026;SDS011;29696;55.698;37.460;2023-04-28T05:48:33;16.77;;;7.83;;
44026;SDS011;29696;55.698;37.460;2023-04-28T05:51:00;19.17;;;13.50;;
44026;SDS011;29696;55.698;37.460;2023-04-28T05:53:27;14.60;;;11.20;;
44026;SDS011;29696;55.698;37.460;2023-04-28T05:55:53;13.00;;;10.23;;
44026;SDS011;29696;55.698;37.460;2023-04-28T05:58:20;16.02;;;11.07;;
44026;SDS011;29696;55.698;37.460;2023-04-28T06:00:46;13.67;;;8.37;;
44026;SDS011;29696;55.698;37.460;2023-04-28T06:03:13;13.83;;;8.13;;
44026;SDS011;29696;55.698;37.460;2023-04-28T06:05:44;11.83;;;8.50;;
44026;SDS011;29696;55.698;37.460;2023-04-28T06:08:13;11.95;;;9.07;;
44026;SDS011;29696;55.698;37.460;2023-04-28T06:10:39;13.10;;;8.20;;
44026;SDS011;29696;55.698;37.460;2023-04-28T06:13:06;14.35;;;9.30;;
44026;SDS011;29696;55.698;37.460;2023-04-28T06:15:34;19.17;;;9.35;;
44026;SDS011;29696;55.698;37.460;2023-04-28T06:18:01;14.10;;;7.47;;
44026;SDS011;29696;55.698;37.460;2023-04-28T06:20:28;13.25;;;7.25;;
44026;SDS011;29696;55.698;37.460;2023-04-28T06:22:54;12.20;;;7.22;;
44026;SDS011;29696;55.698;37.460;2023-04-28T06:25:21;12.63;;;5.22;;
44026;SDS011;29696;55.698;37.460;2023-04-28T06:27:49;7.97;;;6.03;;
44026;SDS011;29696;55.698;37.460;2023-04-28T06:30:17;12.45;;;5.45;;
44026;SDS011;29696;55.698;37.460;2023-04-28T06:32:48;8.90;;;6.15;;
44026;SDS011;29696;55.698;37.460;2023-04-28T06:35:15;6.40;;;5.03;;
44026;SDS011;29696;55.698;37.460;2023-04-28T06:37:42;8.02;;;5.28;;
44026;SDS011;29696;55.698;37.460;2023-04-28T06:40:09;8.07;;;5.00;;
44026;SDS011;29696;55.698;37.460;2023-04-28T06:42:39;8.98;;;4.72;;
44026;SDS011;29696;55.698;37.460;2023-04-28T06:45:11;7.38;;;5.55;;
44026;SDS011;29696;55.698;37.460;2023-04-28T06:47:38;7.35;;;6.15;;
44026;SDS011;29696;55.698;37.460;2023-04-28T06:50:08;9.75;;;6.68;;
44026;SDS011;29696;55.698;37.460;2023-04-28T06:52:35;9.95;;;5.60;;
44026;SDS011;29696;55.698;37.460;2023-04-28T06:55:05;7.88;;;5.50;;
44026;SDS011;29696;55.698;37.460;2023-04-28T06:57:32;7.20;;;5.13;;
44026;SDS011;29696;55.698;37.460;2023-04-28T06:59:59;7.75;;;5.30;;
44026;SDS011;29696;55.698;37.460;2023-04-28T07:02:25;9.00;;;5.68;;
44026;SDS011;29696;55.698;37.460;2023-04-28T07:04:52;14.35;;;6.07;;
44026;SDS011;29696;55.698;37.460;2023-04-28T07:07:18;8.20;;;5.50;;
44026;SDS011;29696;55.698;37.460;2023-04-28T07:09:44;12.45;;;4.57;;
44026;SDS011;29696;55.698;37.460;2023-04-28T07:12:11;10.80;;;5.90;;
44026;SDS011;29696;55.698;37.460;2023-04-28T07:14:39;7.75;;;6.30;;
44026;SDS011;29696;55.698;37.460;2023-04-28T07:17:06;6.95;;;4.95;;
44026;SDS011;29696;55.698;37.460;2023-04-28T07:19:32;10.95;;;4.38;;
44026;SDS011;29696;55.698;37.460;2023-04-28T07:21:59;7.95;;;4.65;;
44026;SDS011;29696;55.698;37.460;2023-04-28T07:24:25;10.82;;;5.22;;
44026;SDS011;29696;55.698;37.460;2023-04-28T07:26:52;12.10;;;5.20;;
44026;SDS011;29696;55.698;37.460;2023-04-28T07:29:18;8.93;;;5.70;;
44026;SDS011;29696;55.698;37.460;2023-04-28T07:31:45;8.00;;;4.85;;
44026;SDS011;29696;55.698;37.460;2023-04-28T07:34:11;7.20;;;4.72;;
44026;SDS011;29696;55.698;37.460;2023-04-28T07:36:38;6.85;;;5.55;;
44026;SDS011;29696;55.698;37.460;2023-04-28T07:39:04;10.20;;;5.72;;
44026;SDS011;29696;55.698;37.460;2023-04-28T07:41:34;7.85;;;5.43;;
44026;SDS011;29696;55.698;37.460;2023-04-28T07:44:06;12.43;;;5.53;;
44026;SDS011;29696;55.698;37.460;2023-04-28T07:46:33;8.98;;;6.55;;
44026;SDS011;29696;55.698;37.460;2023-04-28T07:49:00;16.00;;;6.57;;
44026;SDS011;29696;55.698;37.460;2023-04-28T07:51:27;6.93;;;5.03;;
44026;SDS011;29696;55.698;37.460;2023-04-28T07:53:54;24.98;;;7.63;;
44026;SDS011;29696;55.698;37.460;2023-04-28T07:56:20;7.13;;;5.68;;
44026;SDS011;29696;55.698;37.460;2023-04-28T07:58:47;12.27;;;7.00;;
44026;SDS011;29696;55.698;37.460;2023-04-28T08:01:13;12.63;;;7.53;;
44026;SDS011;29696;55.698;37.460;2023-04-28T08:03:40;11.35;;;6.35;;
44026;SDS011;29696;55.698;37.460;2023-04-28T08:06:06;17.35;;;6.75;;
44026;SDS011;29696;55.698;37.460;2023-04-28T08:08:33;12.00;;;6.47;;
44026;SDS011;29696;55.698;37.460;2023-04-28T08:11:00;15.82;;;7.57;;
44026;SDS011;29696;55.698;37.460;2023-04-28T08:13:27;19.38;;;8.10;;
44026;SDS011;29696;55.698;37.460;2023-04-28T08:15:54;15.63;;;8.32;;
44026;SDS011;29696;55.698;37.460;2023-04-28T08:18:25;9.48;;;7.82;;
44026;SDS011;29696;55.698;37.460;2023-04-28T08:20:52;9.93;;;7.20;;
44026;SDS011;29696;55.698;37.460;2023-04-28T08:23:19;15.25;;;7.88;;
44026;SDS011;29696;55.698;37.460;2023-04-28T08:25:46;10.65;;;8.35;;
44026;SDS011;29696;55.698;37.460;2023-04-28T08:28:14;10.40;;;7.93;;
44026;SDS011;29696;55.698;37.460;2023-04-28T08:30:41;14.63;;;8.05;;
44026;SDS011;29696;55.698;37.460;2023-04-28T08:33:07;14.23;;;7.10;;
44026;SDS011;29696;55.698;37.460;2023-04-28T08:35:33;12.43;;;8.07;;
44026;SDS011;29696;55.698;37.460;2023-04-28T08:38:00;12.35;;;7.50;;
44026;SDS011;29696;55.698;37.460;2023-04-28T08:40:26;11.30;;;8.43;;
44026;SDS011;29696;55.698;37.460;2023-04-28T08:42:54;25.65;;;10.43;;
44026;SDS011;29696;55.698;37.460;2023-04-28T08:45:21;11.32;;;8.10;;
44026;SDS011;29696;55.698;37.460;2023-04-28T08:47:50;10.73;;;8.38;;
44026;SDS011;29696;55.698;37.460;2023-04-28T08:50:20;10.48;;;9.40;;
44026;SDS011;29696;55.698;37.460;2023-04-28T08:52:50;14.82;;;11.00;;
44026;SDS011;29696;55.698;37.460;2023-04-28T08:55:17;13.93;;;8.77;;
44026;SDS011;29696;55.698;37.460;2023-04-28T08:57:49;13.90;;;8.63;;
44026;SDS011;29696;55.698;37.460;2023-04-28T09:00:19;12.23;;;9.20;;
44026;SDS011;29696;55.698;37.460;2023-04-28T09:02:46;9.27;;;7.55;;
44026;SDS011;29696;55.698;37.460;2023-04-28T09:05:12;10.07;;;9.02;;
44026;SDS011;29696;55.698;37.460;2023-04-28T09:07:39;10.90;;;9.77;;
44026;SDS011;29696;55.698;37.460;2023-04-28T09:13:03;9.85;;;8.35;;
44026;SDS011;29696;55.698;37.460;2023-04-28T09:15:33;14.77;;;8.38;;
44026;SDS011;29696;55.698;37.460;2023-04-28T09:18:02;9.40;;;7.78;;
44026;SDS011;29696;55.698;37.460;2023-04-28T09:20:30;11.98;;;9.13;;
44026;SDS011;29696;55.698;37.460;2023-04-28T09:23:18;12.35;;;8.13;;
44026;SDS011;29696;55.698;37.460;2023-04-28T09:26:05;10.07;;;8.80;;
44026;SDS011;29696;55.698;37.460;2023-04-28T09:28:33;12.40;;;9.00;;
44026;SDS011;29696;55.698;37.460;2023-04-28T09:31:01;10.23;;;8.82;;
44026;SDS011;29696;55.698;37.460;2023-04-28T09:33:28;10.40;;;9.18;;
44026;SDS011;29696;55.698;37.460;2023-04-28T09:35:55;10.50;;;9.40;;
44026;SDS011;29696;55.698;37.460;2023-04-28T09:38:21;12.93;;;8.65;;
44026;SDS011;29696;55.698;37.460;2023-04-28T09:43:35;10.13;;;7.72;;
44026;SDS011;29696;55.698;37.460;2023-04-28T09:46:02;12.90;;;8.48;;
44026;SDS011;29696;55.698;37.460;2023-04-28T09:48:31;9.68;;;8.57;;
44026;SDS011;29696;55.698;37.460;2023-04-28T09:51:06;9.18;;;8.00;;
44026;SDS011;29696;55.698;37.460;2023-04-28T09:53:33;11.95;;;8.93;;
44026;SDS011;29696;55.698;37.460;2023-04-28T09:56:01;9.90;;;8.80;;
44026;SDS011;29696;55.698;37.460;2023-04-28T09:58:30;10.45;;;8.13;;
44026;SDS011;29696;55.698;37.460;2023-04-28T10:01:00;10.85;;;9.75;;
44026;SDS011;29696;55.698;37.460;2023-04-28T10:03:27;11.60;;;8.90;;
44026;SDS011;29696;55.698;37.460;2023-04-28T10:05:56;9.90;;;8.90;;
44026;SDS011;29696;55.698;37.460;2023-04-28T10:08:24;12.20;;;8.45;;
44026;SDS011;29696;55.698;37.460;2023-04-28T10:10:52;13.38;;;7.90;;
44026;SDS011;29696;55.698;37.460;2023-04-28T10:13:21;8.52;;;7.72;;
44026;SDS011;29696;55.698;37.460;2023-04-28T10:15:49;13.25;;;8.85;;
44026;SDS011;29696;55.698;37.460;2023-04-28T10:18:16;13.82;;;9.10;;
44026;SDS011;29696;55.698;37.460;2023-04-28T10:20:54;12.38;;;9.63;;
44026;SDS011;29696;55.698;37.460;2023-04-28T10:29:39;42.83;;;13.27;;
44026;SDS011;29696;55.698;37.460;2023-04-28T10:32:18;16.92;;;10.10;;
44026;SDS011;29696;55.698;37.460;2023-04-28T10:34:46;12.02;;;10.73;;
44026;SDS011;29696;55.698;37.460;2023-04-28T10:37:13;14.10;;;11.52;;
44026;SDS011;29696;55.698;37.460;2023-04-28T10:39:41;14.73;;;10.13;;
44026;SDS011;29696;55.698;37.460;2023-04-28T10:42:50;17.67;;;10.43;;
44026;SDS011;29696;55.698;37.460;2023-04-28T10:51:34;17.35;;;14.20;;
44026;SDS011;29696;55.698;37.460;2023-04-28T10:54:07;14.63;;;12.47;;
44026;SDS011;29696;55.698;37.460;2023-04-28T10:56:33;15.65;;;13.07;;
44026;SDS011;29696;55.698;37.460;2023-04-28T10:59:00;17.40;;;11.82;;
44026;SDS011;29696;55.698;37.460;2023-04-28T11:01:54;14.95;;;12.45;;
44026;SDS011;29696;55.698;37.460;2023-04-28T11:05:08;16.08;;;12.68;;
44026;SDS011;29696;55.698;37.460;2023-04-28T11:07:37;17.77;;;11.63;;
44026;SDS011;29696;55.698;37.460;2023-04-28T11:10:03;15.88;;;13.38;;
44026;SDS011;29696;55.698;37.460;2023-04-28T11:12:30;15.02;;;13.40;;
44026;SDS011;29696;55.698;37.460;2023-04-28T11:14:57;14.27;;;12.88;;
44026;SDS011;29696;55.698;37.460;2023-04-28T11:17:40;11.80;;;10.60;;
44026;SDS011;29696;55.698;37.460;2023-04-28T11:20:07;10.83;;;9.73;;
44026;SDS011;29696;55.698;37.460;2023-04-28T11:22:38;14.43;;;9.00;;
44026;SDS011;29696;55.698;37.460;2023-04-28T11:25:06;15.65;;;10.57;;
44026;SDS011;29696;55.698;37.460;2023-04-28T11:27:33;10.43;;;9.43;;
44026;SDS011;29696;55.698;37.460;2023-04-28T11:30:00;12.80;;;9.73;;
44026;SDS011;29696;55.698;37.460;2023-04-28T11:32:29;11.27;;;9.83;;
44026;SDS011;29696;55.698;37.460;2023-04-28T11:34:56;10.57;;;9.43;;
44026;SDS011;29696;55.698;37.460;2023-04-28T11:37:46;10.83;;;9.73;;
44026;SDS011;29696;55.698;37.460;2023-04-28T11:40:29;13.70;;;11.38;;
44026;SDS011;29696;55.698;37.460;2023-04-28T11:47:54;15.52;;;11.07;;
44026;SDS011;29696;55.698;37.460;2023-04-28T11:50:36;13.35;;;10.70;;
44026;SDS011;29696;55.698;37.460;2023-04-28T11:53:03;11.57;;;10.38;;
44026;SDS011;29696;55.698;37.460;2023-04-28T11:55:29;13.45;;;12.23;;
44026;SDS011;29696;55.698;37.460;2023-04-28T12:03:53;10.40;;;8.90;;
44026;SDS011;29696;55.698;37.460;2023-04-28T12:11:27;11.60;;;9.95;;
44026;SDS011;29696;55.698;37.460;2023-04-28T12:14:03;12.07;;;9.73;;
44026;SDS011;29696;55.698;37.460;2023-04-28T12:16:40;11.20;;;8.38;;
44026;SDS011;29696;55.698;37.460;2023-04-28T12:19:10;9.65;;;8.10;;
44026;SDS011;29696;55.698;37.460;2023-04-28T12:21:38;9.88;;;7.20;;
44026;SDS011;29696;55.698;37.460;2023-04-28T12:27:19;7.97;;;7.18;;
44026;SDS011;29696;55.698;37.460;2023-04-28T12:29:50;8.50;;;7.45;;
44026;SDS011;29696;55.698;37.460;2023-04-28T12:32:16;8.10;;;7.22;;
44026;SDS011;29696;55.698;37.460;2023-04-28T12:34:44;6.93;;;6.32;;
44026;SDS011;29696;55.698;37.460;2023-04-28T12:37:11;7.32;;;6.60;;
44026;SDS011;29696;55.698;37.460;2023-04-28T12:39:38;7.47;;;6.60;;
44026;SDS011;29696;55.698;37.460;2023-04-28T12:42:05;7.43;;;6.57;;
44026;SDS011;29696;55.698;37.460;2023-04-28T12:44:33;10.65;;;6.65;;
44026;SDS011;29696;55.698;37.460;2023-04-28T12:47:04;7.28;;;6.38;;
44026;SDS011;29696;55.698;37.460;2023-04-28T12:49:35;6.20;;;5.70;;
44026;SDS011;29696;55.698;37.460;2023-04-28T12:52:04;6.73;;;6.03;;
44026;SDS011;29696;55.698;37.460;2023-04-28T12:54:31;6.43;;;5.82;;
44026;SDS011;29696;55.698;37.460;2023-04-28T12:56:58;7.28;;;5.88;;
44026;SDS011;29696;55.698;37.460;2023-04-28T12:59:24;6.20;;;5.60;;
44026;SDS011;29696;55.698;37.460;2023-04-28T13:01:51;7.45;;;6.38;;
44026;SDS011;29696;55.698;37.460;2023-04-28T13:04:17;9.50;;;6.90;;
44026;SDS011;29696;55.698;37.460;2023-04-28T13:06:44;7.00;;;6.35;;
44026;SDS011;29696;55.698;37.460;2023-04-28T13:09:12;8.27;;;6.05;;
44026;SDS011;29696;55.698;37.460;2023-04-28T13:11:40;6.75;;;5.07;;
44026;SDS011;29696;55.698;37.460;2023-04-28T13:14:07;7.75;;;5.43;;
44026;SDS011;29696;55.698;37.460;2023-04-28T13:16:34;7.10;;;5.05;;
44026;SDS011;29696;55.698;37.460;2023-04-28T13:19:02;5.65;;;4.50;;
44026;SDS011;29696;55.698;37.460;2023-04-28T13:21:28;8.73;;;6.03;;
44026;SDS011;29696;55.698;37.460;2023-04-28T13:23:55;9.00;;;7.13;;
44026;SDS011;29696;55.698;37.460;2023-04-28T13:26:22;10.23;;;7.47;;
44026;SDS011;29696;55.698;37.460;2023-04-28T13:28:50;6.87;;;4.13;;
44026;SDS011;29696;55.698;37.460;2023-04-28T13:31:17;5.67;;;4.93;;
44026;SDS011;29696;55.698;37.460;2023-04-28T13:33:44;8.43;;;4.87;;
44026;SDS011;29696;55.698;37.460;2023-04-28T13:36:11;7.67;;;4.97;;
44026;SDS011;29696;55.698;37.460;2023-04-28T13:38:37;5.93;;;5.40;;
44026;SDS011;29696;55.698;37.460;2023-04-28T13:41:04;8.83;;;7.03;;
44026;SDS011;29696;55.698;37.460;2023-04-28T13:43:30;6.63;;;5.20;;
44026;SDS011;29696;55.698;37.460;2023-04-28T13:45:57;5.50;;;4.60;;
44026;SDS011;29696;55.698;37.460;2023-04-28T13:48:23;6.47;;;5.43;;
44026;SDS011;29696;55.698;37.460;2023-04-28T13:50:52;8.77;;;7.63;;
44026;SDS011;29696;55.698;37.460;2023-04-28T13:53:19;13.83;;;6.70;;
44026;SDS011;29696;55.698;37.460;2023-04-28T13:55:47;7.77;;;6.97;;
44026;SDS011;29696;55.698;37.460;2023-04-28T13:58:14;4.97;;;3.87;;
44026;SDS011;29696;55.698;37.460;2023-04-28T14:00:41;4.80;;;3.73;;
44026;SDS011;29696;55.698;37.460;2023-04-28T14:03:07;9.77;;;6.70;;
44026;SDS011;29696;55.698;37.460;2023-04-28T14:05:34;8.90;;;6.10;;
44026;SDS011;29696;55.698;37.460;2023-04-28T14:08:01;7.83;;;7.10;;
44026;SDS011;29696;55.698;37.460;2023-04-28T14:10:28;10.87;;;9.83;;
44026;SDS011;29696;55.698;37.460;2023-04-28T14:12:55;9.20;;;7.87;;
44026;SDS011;29696;55.698;37.460;2023-04-28T14:15:22;10.07;;;8.30;;
44026;SDS011;29696;55.698;37.460;2023-04-28T14:17:49;6.23;;;5.63;;
44026;SDS011;29696;55.698;37.460;2023-04-28T14:20:15;5.37;;;3.87;;
44026;SDS011;29696;55.698;37.460;2023-04-28T14:22:42;6.43;;;4.37;;
44026;SDS011;29696;55.698;37.460;2023-04-28T14:25:09;7.00;;;4.60;;
44026;SDS011;29696;55.698;37.460;2023-04-28T14:27:35;8.33;;;3.03;;
44026;SDS011;29696;55.698;37.460;2023-04-28T14:30:02;6.10;;;2.50;;
44026;SDS011;29696;55.698;37.460;2023-04-28T14:32:31;7.00;;;4.23;;
44026;SDS011;29696;55.698;37.460;2023-04-28T14:34:57;6.57;;;3.00;;
44026;SDS011;29696;55.698;37.460;2023-04-28T14:37:24;3.20;;;2.70;;
44026;SDS011;29696;55.698;37.460;2023-04-28T14:39:51;6.10;;;2.50;;
44026;SDS011;29696;55.698;37.460;2023-04-28T14:42:18;6.33;;;4.53;;
44026;SDS011;29696;55.698;37.460;2023-04-28T14:44:45;10.23;;;5.80;;
44026;SDS011;29696;55.698;37.460;2023-04-28T14:47:11;13.07;;;10.67;;
44026;SDS011;29696;55.698;37.460;2023-04-28T14:49:38;14.50;;;12.97;;
44026;SDS011;29696;55.698;37.460;2023-04-28T14:52:04;15.77;;;12.43;;
44026;SDS011;29696;55.698;37.460;2023-04-28T14:54:30;21.17;;;11.60;;
44026;SDS011;29696;55.698;37.460;2023-04-28T14:56:58;11.33;;;7.17;;
44026;SDS011;29696;55.698;37.460;2023-04-28T14:59:25;8.83;;;5.30;;
44026;SDS011;29696;55.698;37.460;2023-04-28T15:01:52;6.87;;;5.17;;
44026;SDS011;29696;55.698;37.460;2023-04-28T15:04:19;8.70;;;4.10;;
44026;SDS011;29696;55.698;37.460;2023-04-28T15:06:45;4.83;;;3.13;;
44026;SDS011;29696;55.698;37.460;2023-04-28T15:09:12;3.60;;;2.63;;
44026;SDS011;29696;55.698;37.460;2023-04-28T15:11:39;3.67;;;2.70;;